Time;durP1;ratioP1;P1;durP2;ratioP2;P2;SDS_P1;SDS_P2;PMS_P1;PMS_P2;Temp;Humidity;BMP_temperature;BMP_pressure;BME280_temperature;BME280_humidity;BME280_pressure;Samples;Min_cycle;Max_cycle;Signal;HPM_P1;HPM_P2
2023/05/27 00:02:11;;;;;;;16.43;4.10;;;10.70;99.90;;;;;;5034219;28;20209;-84
2023/05/27 00:04:38;;;;;;;10.50;4.37;;;10.70;99.90;;;;;;5033401;28;20617;-81
2023/05/27 00:07:05;;;;;;;20.20;4.40;;;10.70;99.90;;;;;;5034204;28;20237;-82
2023/05/27 00:09:34;;;;;;;17.40;3.77;;;10.70;99.90;;;;;;5034244;28;20230;-80
2023/05/27 00:12:01;;;;;;;21.63;5.60;;;10.70;99.90;;;;;;5033970;28;20204;-82
2023/05/27 00:14:28;;;;;;;14.73;4.53;;;10.60;99.90;;;;;;5033382;28;20227;-82
2023/05/27 00:16:55;;;;;;;16.97;5.03;;;10.60;99.90;;;;;;5033745;28;20262;-82
2023/05/27 00:19:23;;;;;;;13.10;4.10;;;10.60;99.90;;;;;;5033344;28;20594;-83
2023/05/27 00:21:52;;;;;;;15.23;4.47;;;10.60;99.90;;;;;;5033188;28;20199;-81
2023/05/27 00:24:19;;;;;;;13.20;4.87;;;10.60;99.90;;;;;;5032464;28;20245;-80
2023/05/27 00:26:47;;;;;;;12.97;4.30;;;10.50;99.90;;;;;;5033243;28;20244;-81
2023/05/27 00:29:14;;;;;;;15.47;4.10;;;10.50;99.90;;;;;;5033635;28;20218;-81
2023/05/27 00:31:41;;;;;;;18.37;4.53;;;10.50;99.90;;;;;;5032855;28;20657;-80
2023/05/27 00:34:08;;;;;;;14.60;4.07;;;10.50;99.90;;;;;;5033289;28;20248;-83
2023/05/27 00:36:35;;;;;;;16.13;3.90;;;10.40;99.90;;;;;;5033291;28;20214;-81
2023/05/27 00:39:02;;;;;;;13.73;3.87;;;10.40;99.90;;;;;;5053085;28;20232;-80
2023/05/27 00:41:30;;;;;;;10.27;3.70;;;10.40;99.90;;;;;;5038791;28;20237;-80
2023/05/27 00:43:58;;;;;;;18.50;4.27;;;10.40;99.90;;;;;;5033053;28;20199;-83
2023/05/27 00:46:25;;;;;;;14.50;4.10;;;10.40;99.90;;;;;;5032356;28;20202;-82
2023/05/27 00:48:52;;;;;;;15.40;4.33;;;10.30;99.90;;;;;;5033342;28;20241;-82
2023/05/27 00:51:19;;;;;;;12.17;3.97;;;10.40;99.90;;;;;;5033180;28;20191;-82
2023/05/27 00:53:47;;;;;;;9.83;3.57;;;10.30;99.90;;;;;;5032245;28;20288;-80
2023/05/27 00:56:15;;;;;;;9.83;3.97;;;10.30;99.90;;;;;;5033112;28;20222;-81
2023/05/27 00:58:43;;;;;;;17.97;4.37;;;10.30;99.90;;;;;;5032916;28;20633;-81
2023/05/27 01:01:11;;;;;;;18.80;3.90;;;10.20;99.90;;;;;;5032057;28;20536;-81
2023/05/27 01:03:41;;;;;;;15.10;5.57;;;10.20;99.90;;;;;;5032702;28;20264;-81
2023/05/27 01:06:21;;;;;;;13.50;4.03;;;10.20;99.90;;;;;;5048556;28;20438;-81
2023/05/27 01:08:58;;;;;;;15.07;3.33;;;10.20;99.90;;;;;;5052892;28;20185;-81
2023/05/27 01:11:30;;;;;;;12.23;3.87;;;10.20;99.90;;;;;;5052909;28;20581;-81
2023/05/27 01:14:05;;;;;;;9.73;3.90;;;10.10;99.90;;;;;;5035583;28;20225;-81
2023/05/27 01:16:34;;;;;;;12.17;3.77;;;10.10;99.90;;;;;;5052307;28;20225;-80
2023/05/27 01:19:03;;;;;;;12.13;3.60;;;10.10;99.90;;;;;;5053019;28;20198;-81
2023/05/27 01:21:31;;;;;;;10.03;3.97;;;10.10;99.90;;;;;;5052499;28;20798;-81
2023/05/27 01:24:05;;;;;;;12.53;3.97;;;10.10;99.90;;;;;;5036553;28;20594;-81
2023/05/27 01:26:32;;;;;;;15.37;3.70;;;10.00;99.90;;;;;;5032862;28;20210;-82
2023/05/27 01:29:00;;;;;;;14.90;3.67;;;10.00;99.90;;;;;;5032586;28;20261;-80
2023/05/27 01:31:34;;;;;;;9.13;3.60;;;10.00;99.90;;;;;;5033013;28;20199;-81
2023/05/27 01:34:04;;;;;;;12.57;3.47;;;10.00;99.90;;;;;;5032384;28;20228;-80
2023/05/27 01:36:38;;;;;;;9.27;4.13;;;10.00;99.90;;;;;;5032438;28;20195;-82
2023/05/27 01:39:11;;;;;;;13.30;3.30;;;10.00;99.90;;;;;;5032795;28;20277;-80
2023/05/27 01:41:40;;;;;;;14.57;4.90;;;10.00;99.90;;;;;;5031950;28;20668;-82
2023/05/27 01:44:07;;;;;;;12.50;2.90;;;10.00;99.90;;;;;;5032645;28;20618;-82
2023/05/27 01:46:34;;;;;;;11.63;4.47;;;9.90;99.90;;;;;;5032545;28;20198;-80
2023/05/27 01:49:01;;;;;;;10.83;3.60;;;9.90;99.90;;;;;;5031488;28;20210;-82
2023/05/27 01:51:28;;;;;;;11.07;3.87;;;9.90;99.90;;;;;;5038334;28;20298;-82
2023/05/27 01:53:55;;;;;;;14.83;3.90;;;9.90;99.90;;;;;;5047792;28;20590;-81
2023/05/27 01:56:23;;;;;;;15.27;3.80;;;9.90;99.90;;;;;;5051765;28;20218;-80
2023/05/27 01:58:50;;;;;;;10.47;4.00;;;9.80;99.90;;;;;;5042985;28;20548;-80
2023/05/27 02:01:17;;;;;;;12.80;4.03;;;9.80;99.90;;;;;;5032269;28;20199;-81
2023/05/27 02:03:44;;;;;;;13.93;4.50;;;9.80;99.90;;;;;;5031634;28;20206;-81
2023/05/27 02:06:11;;;;;;;13.00;3.83;;;9.80;99.90;;;;;;5032467;28;20203;-79
2023/05/27 02:08:38;;;;;;;14.23;4.00;;;9.80;99.90;;;;;;5032193;28;20685;-80
2023/05/27 02:11:06;;;;;;;9.53;3.80;;;9.80;99.90;;;;;;5031953;28;20512;-80
2023/05/27 02:13:34;;;;;;;10.50;3.20;;;9.70;99.90;;;;;;5035314;28;20195;-81
2023/05/27 02:16:01;;;;;;;9.67;3.57;;;9.70;99.90;;;;;;5035506;28;20646;-80
2023/05/27 02:18:28;;;;;;;14.83;4.07;;;9.70;99.90;;;;;;5035419;28;20194;-78
2023/05/27 02:20:55;;;;;;;12.33;3.50;;;9.70;99.90;;;;;;5035365;28;20203;-81
2023/05/27 02:23:22;;;;;;;12.00;4.23;;;9.70;99.90;;;;;;5035611;28;20206;-83
2023/05/27 02:25:49;;;;;;;16.67;4.60;;;9.60;99.90;;;;;;5035734;28;20465;-80
2023/05/27 02:28:16;;;;;;;12.10;4.33;;;9.60;99.90;;;;;;5035611;28;20202;-80
2023/05/27 02:30:44;;;;;;;9.83;4.50;;;9.70;99.90;;;;;;5034735;28;20206;-80
2023/05/27 02:33:11;;;;;;;10.40;3.57;;;9.60;99.90;;;;;;5035335;28;20198;-81
2023/05/27 02:35:38;;;;;;;13.63;3.50;;;9.60;99.90;;;;;;5035354;28;20240;-81
2023/05/27 02:38:05;;;;;;;12.70;3.23;;;9.60;99.90;;;;;;5034920;28;20203;-82
2023/05/27 02:40:32;;;;;;;14.60;4.00;;;9.50;99.90;;;;;;5035743;28;20241;-81
2023/05/27 02:42:59;;;;;;;11.90;4.23;;;9.50;99.90;;;;;;5034995;28;20567;-81
2023/05/27 02:45:26;;;;;;;11.37;3.90;;;9.50;99.90;;;;;;5034992;28;20289;-81
2023/05/27 02:47:55;;;;;;;13.00;3.77;;;9.50;99.90;;;;;;5035222;28;20591;-81
2023/05/27 02:50:22;;;;;;;9.80;4.37;;;9.50;99.90;;;;;;5035064;28;20602;-81
2023/05/27 02:52:49;;;;;;;12.53;3.73;;;9.40;99.90;;;;;;5034890;28;20297;-80
2023/05/27 02:55:16;;;;;;;11.70;3.73;;;9.50;99.90;;;;;;5035610;28;20259;-81
2023/05/27 02:57:43;;;;;;;10.87;4.13;;;9.40;99.90;;;;;;5054863;28;20281;-82
2023/05/27 03:00:11;;;;;;;12.33;4.40;;;9.40;99.90;;;;;;5046683;28;20672;-80
2023/05/27 03:02:38;;;;;;;9.30;4.13;;;9.40;99.90;;;;;;5035004;28;20202;-81
2023/05/27 03:05:07;;;;;;;7.97;3.83;;;9.40;99.90;;;;;;5034537;28;20586;-81
2023/05/27 03:07:34;;;;;;;13.67;3.40;;;9.40;99.90;;;;;;5034509;28;20557;-81
2023/05/27 03:10:01;;;;;;;10.83;3.67;;;9.40;99.90;;;;;;5034642;28;20208;-81
2023/05/27 03:12:28;;;;;;;11.53;3.57;;;9.40;99.90;;;;;;5034592;28;20499;-81
2023/05/27 03:14:55;;;;;;;10.23;3.83;;;9.40;99.90;;;;;;5033636;28;20229;-82
2023/05/27 03:17:22;;;;;;;12.20;3.90;;;9.50;99.90;;;;;;5034485;28;20210;-82
2023/05/27 03:19:49;;;;;;;18.73;4.27;;;9.50;99.90;;;;;;5034859;28;20205;-81
2023/05/27 03:22:18;;;;;;;15.57;4.00;;;9.50;99.90;;;;;;5034411;28;20202;-81
2023/05/27 03:24:45;;;;;;;10.97;3.87;;;9.40;99.90;;;;;;5034392;28;20209;-81
2023/05/27 03:27:12;;;;;;;12.13;3.50;;;9.40;99.90;;;;;;5033645;28;20205;-80
2023/05/27 03:29:39;;;;;;;11.07;3.73;;;9.40;99.90;;;;;;5043469;28;20247;-83
2023/05/27 03:32:06;;;;;;;10.77;3.70;;;9.40;99.90;;;;;;5054571;28;20767;-81
2023/05/27 03:34:33;;;;;;;12.60;4.13;;;9.40;99.90;;;;;;5050792;28;20214;-81
2023/05/27 03:37:00;;;;;;;15.43;5.30;;;9.40;99.90;;;;;;5034427;28;20734;-81
2023/05/27 03:39:28;;;;;;;10.77;3.47;;;9.30;99.90;;;;;;5034025;28;20202;-81
2023/05/27 03:41:55;;;;;;;9.60;3.80;;;9.30;99.90;;;;;;5032909;28;20230;-81
2023/05/27 03:44:22;;;;;;;11.47;4.40;;;9.30;99.90;;;;;;5033898;28;20222;-80
2023/05/27 03:46:49;;;;;;;14.80;3.57;;;9.30;99.90;;;;;;5033963;28;20614;-81
2023/05/27 03:49:17;;;;;;;15.97;4.47;;;9.30;99.90;;;;;;5033771;28;20209;-81
2023/05/27 03:51:43;;;;;;;14.33;4.93;;;9.30;99.90;;;;;;5034360;28;20207;-81
2023/05/27 03:54:10;;;;;;;14.93;4.43;;;9.30;99.90;;;;;;5034131;28;20293;-82
2023/05/27 03:56:39;;;;;;;15.13;3.93;;;9.30;99.90;;;;;;5032768;28;20229;-81
2023/05/27 03:59:07;;;;;;;14.57;4.07;;;9.30;99.90;;;;;;5033781;28;20610;-81
2023/05/27 04:01:35;;;;;;;10.10;4.10;;;9.40;99.90;;;;;;5033952;28;20242;-83
2023/05/27 04:04:02;;;;;;;13.17;4.20;;;9.40;99.90;;;;;;5032882;28;20660;-81
2023/05/27 04:06:29;;;;;;;14.00;4.43;;;9.40;99.90;;;;;;5033569;28;20281;-80
2023/05/27 04:08:56;;;;;;;15.67;4.00;;;9.40;99.90;;;;;;5033858;28;20289;-82
2023/05/27 04:11:23;;;;;;;25.67;6.03;;;9.40;99.90;;;;;;5033052;28;20209;-81
2023/05/27 04:13:51;;;;;;;17.40;3.73;;;9.40;99.90;;;;;;5033995;28;20202;-82
2023/05/27 04:16:18;;;;;;;13.77;4.07;;;9.50;99.90;;;;;;5032860;28;20276;-80
2023/05/27 04:18:48;;;;;;;15.03;4.57;;;9.50;99.90;;;;;;5033105;28;20284;-80
2023/05/27 04:21:15;;;;;;;15.23;5.20;;;9.50;99.90;;;;;;5034160;28;20245;-80
2023/05/27 04:23:42;;;;;;;14.93;3.83;;;9.60;99.90;;;;;;5032763;28;20204;-80
2023/05/27 04:26:09;;;;;;;16.30;5.43;;;9.60;99.90;;;;;;5033507;28;20194;-82
2023/05/27 04:28:38;;;;;;;10.30;3.70;;;9.60;99.90;;;;;;5053068;28;20221;-80
2023/05/27 04:31:12;;;;;;;13.50;4.97;;;9.70;99.90;;;;;;5052347;28;20197;-80
2023/05/27 04:33:39;;;;;;;16.27;4.37;;;9.70;99.90;;;;;;5041582;28;20238;-81
2023/05/27 04:36:07;;;;;;;17.80;4.80;;;9.70;99.90;;;;;;5032195;28;20223;-81
2023/05/27 04:38:33;;;;;;;12.37;4.60;;;9.70;99.90;;;;;;5032766;28;20202;-80
2023/05/27 04:41:01;;;;;;;16.07;5.33;;;9.80;99.90;;;;;;5033179;28;20289;-81
2023/05/27 04:43:29;;;;;;;14.10;4.50;;;9.80;99.90;;;;;;5032703;28;20584;-80
2023/05/27 04:45:59;;;;;;;13.80;4.07;;;9.90;99.90;;;;;;5032497;28;20191;-80
2023/05/27 04:48:27;;;;;;;15.47;4.77;;;9.90;99.90;;;;;;5032474;28;20251;-82
2023/05/27 04:50:54;;;;;;;15.13;3.87;;;10.00;99.90;;;;;;5032975;28;20206;-81
2023/05/27 04:53:21;;;;;;;11.20;4.07;;;10.00;99.90;;;;;;5046248;28;20264;-81
2023/05/27 04:55:49;;;;;;;16.30;4.60;;;10.10;99.90;;;;;;5050590;28;20220;-80
2023/05/27 04:58:15;;;;;;;10.17;3.97;;;10.20;99.90;;;;;;5032349;28;20615;-81
2023/05/27 05:00:52;;;;;;;10.73;3.90;;;10.20;99.90;;;;;;5032356;28;20500;-81
2023/05/27 05:03:21;;;;;;;13.90;3.63;;;10.30;99.90;;;;;;5032466;28;20495;-81
2023/05/27 05:05:53;;;;;;;15.97;4.60;;;10.50;99.90;;;;;;5032156;28;20649;-81
2023/05/27 05:08:21;;;;;;;18.80;4.47;;;10.70;99.90;;;;;;5032430;28;20199;-81
2023/05/27 05:10:50;;;;;;;11.70;4.50;;;11.00;99.90;;;;;;5032125;28;20214;-82
2023/05/27 05:13:16;;;;;;;8.20;2.97;;;11.20;99.90;;;;;;5032108;28;20673;-84
2023/05/27 05:15:44;;;;;;;14.50;4.33;;;11.30;99.90;;;;;;5037098;28;20234;-82
2023/05/27 05:18:11;;;;;;;10.07;3.57;;;11.50;99.90;;;;;;5052333;28;20504;-82
2023/05/27 05:20:38;;;;;;;8.17;3.13;;;11.70;99.90;;;;;;5051436;28;20205;-81
2023/05/27 05:23:07;;;;;;;10.30;3.53;;;12.00;99.90;;;;;;5040932;28;20863;-80
2023/05/27 05:25:37;;;;;;;14.00;4.00;;;12.40;99.90;;;;;;5032873;28;20199;-81
2023/05/27 05:28:04;;;;;;;10.87;2.90;;;12.60;99.90;;;;;;5031946;28;20233;-80
2023/05/27 05:30:31;;;;;;;11.63;3.43;;;12.80;99.90;;;;;;5033038;28;20198;-82
2023/05/27 05:32:58;;;;;;;14.20;3.27;;;12.80;99.90;;;;;;5032596;28;20526;-82
2023/05/27 05:35:25;;;;;;;12.77;4.40;;;12.90;99.90;;;;;;5032125;28;20222;-81
2023/05/27 05:37:52;;;;;;;9.83;3.43;;;12.80;99.90;;;;;;5032592;28;20599;-81
2023/05/27 05:40:22;;;;;;;9.03;3.37;;;12.70;99.90;;;;;;5032690;28;20500;-82
2023/05/27 05:42:49;;;;;;;13.87;4.10;;;12.60;99.90;;;;;;5032358;28;20238;-80
2023/05/27 05:45:16;;;;;;;9.03;3.30;;;12.30;99.90;;;;;;5040603;28;20208;-81
2023/05/27 05:47:43;;;;;;;9.07;3.10;;;12.20;99.90;;;;;;5053149;28;20288;-82
2023/05/27 05:50:10;;;;;;;10.37;3.50;;;12.20;99.90;;;;;;5036218;28;20190;-81
2023/05/27 05:52:37;;;;;;;10.20;3.40;;;12.10;99.90;;;;;;5036517;28;20230;-81
2023/05/27 05:55:05;;;;;;;8.30;3.20;;;12.30;99.90;;;;;;5055214;28;20194;-81
2023/05/27 05:57:34;;;;;;;10.30;3.43;;;12.40;99.90;;;;;;5049250;28;20263;-81
2023/05/27 06:00:01;;;;;;;12.87;3.77;;;12.40;99.90;;;;;;5036136;28;20495;-84
2023/05/27 06:02:28;;;;;;;9.27;3.30;;;12.60;99.90;;;;;;5035737;28;20207;-80
2023/05/27 06:04:54;;;;;;;10.93;3.50;;;12.60;99.90;;;;;;5035933;28;20676;-82
2023/05/27 06:07:21;;;;;;;14.47;4.03;;;12.70;99.90;;;;;;5045011;28;20585;-82
2023/05/27 06:09:49;;;;;;;11.00;3.23;;;13.00;99.90;;;;;;5055496;28;20190;-83
2023/05/27 06:12:16;;;;;;;14.20;3.20;;;13.40;99.90;;;;;;5055930;28;20683;-81
2023/05/27 06:14:46;;;;;;;16.00;4.43;;;13.60;99.90;;;;;;5055682;28;20280;-82
2023/05/27 06:17:13;;;;;;;9.33;3.63;;;13.90;99.90;;;;;;5043545;28;20249;-81
2023/05/27 06:19:40;;;;;;;11.40;3.47;;;14.50;99.90;;;;;;5035941;28;20506;-83
2023/05/27 06:22:07;;;;;;;13.73;3.67;;;15.00;99.90;;;;;;5035274;28;20278;-87
2023/05/27 06:24:34;;;;;;;15.53;3.80;;;15.30;99.90;;;;;;5034972;28;20195;-81
2023/05/27 06:27:01;;;;;;;14.77;4.03;;;15.50;99.90;;;;;;5035347;28;20190;-78
2023/05/27 06:29:28;;;;;;;13.50;3.60;;;15.30;99.90;;;;;;5034824;28;20613;-81
2023/05/27 06:31:57;;;;;;;15.27;3.65;;;14.90;99.90;;;;;;5035330;28;20285;-81
2023/05/27 06:34:23;;;;;;;11.03;3.50;;;14.80;99.90;;;;;;5035402;28;20199;-81
2023/05/27 06:36:50;;;;;;;13.32;3.60;;;14.60;99.90;;;;;;5035486;28;20244;-81
2023/05/27 06:39:17;;;;;;;14.70;4.20;;;14.60;99.90;;;;;;5035141;28;20548;-81
2023/05/27 06:41:44;;;;;;;7.83;3.40;;;14.50;99.90;;;;;;5035447;28;20293;-83
2023/05/27 06:44:11;;;;;;;13.00;4.07;;;14.50;99.90;;;;;;5034844;28;20233;-81
2023/05/27 06:46:38;;;;;;;9.87;3.57;;;14.80;99.90;;;;;;5042803;28;20507;-81
2023/05/27 06:49:06;;;;;;;13.17;3.90;;;15.10;99.90;;;;;;5034412;28;20209;-82
2023/05/27 06:51:33;;;;;;;10.67;3.70;;;14.90;99.90;;;;;;5034852;28;20211;-82
2023/05/27 06:54:00;;;;;;;12.05;3.72;;;15.00;99.90;;;;;;5039307;28;20200;-84
2023/05/27 06:56:27;;;;;;;12.93;3.30;;;15.50;99.90;;;;;;5054012;28;20660;-82
2023/05/27 06:58:54;;;;;;;11.68;3.60;;;16.10;99.90;;;;;;5053036;28;20628;-84
2023/05/27 07:01:21;;;;;;;8.52;3.15;;;16.30;99.90;;;;;;5054326;28;20281;-82
2023/05/27 07:03:48;;;;;;;11.90;4.28;;;16.10;99.90;;;;;;5050855;28;20202;-84
2023/05/27 07:06:16;;;;;;;12.27;3.83;;;16.10;99.90;;;;;;5025570;28;20666;-84
2023/05/27 07:08:43;;;;;;;12.68;4.03;;;16.00;99.90;;;;;;5052247;28;20293;-83
2023/05/27 07:11:11;;;;;;;11.43;4.20;;;15.60;99.90;;;;;;5051876;28;20298;-84
2023/05/27 07:13:38;;;;;;;11.75;3.75;;;15.50;99.90;;;;;;5054999;28;20263;-85
2023/05/27 07:16:05;;;;;;;15.57;4.22;;;15.50;99.90;;;;;;5054996;28;20699;-82
2023/05/27 07:18:31;;;;;;;11.95;3.40;;;15.50;99.90;;;;;;5051767;28;20208;-84
2023/05/27 07:20:58;;;;;;;13.30;3.55;;;15.40;99.90;;;;;;5054087;28;20202;-85
2023/05/27 07:23:27;;;;;;;11.57;3.45;;;15.30;99.90;;;;;;5053006;28;20555;-83
2023/05/27 07:25:54;;;;;;;11.10;4.07;;;15.30;99.90;;;;;;5054620;28;20568;-82
2023/05/27 07:28:20;;;;;;;11.85;4.18;;;15.40;99.90;;;;;;5051641;28;20584;-81
2023/05/27 07:30:47;;;;;;;11.65;3.72;;;15.60;99.90;;;;;;5034288;28;20205;-82
2023/05/27 07:33:15;;;;;;;11.45;3.90;;;15.80;99.90;;;;;;5033497;28;20191;-81
2023/05/27 07:35:42;;;;;;;13.82;3.20;;;15.90;99.90;;;;;;5034025;28;20205;-81
2023/05/27 07:38:09;;;;;;;10.75;3.28;;;16.20;99.90;;;;;;5034208;28;20210;-81
2023/05/27 07:40:37;;;;;;;12.27;3.70;;;16.50;99.90;;;;;;5032314;28;20218;-81
2023/05/27 07:43:04;;;;;;;9.45;4.20;;;16.90;99.90;;;;;;5049644;28;20230;-81
2023/05/27 07:45:31;;;;;;;14.73;4.32;;;17.40;99.90;;;;;;5052706;28;20221;-81
2023/05/27 07:47:58;;;;;;;11.70;3.97;;;17.80;99.90;;;;;;5052620;28;20226;-80
2023/05/27 07:50:25;;;;;;;12.45;3.65;;;18.20;99.90;;;;;;5052606;28;20290;-83
2023/05/27 07:52:52;;;;;;;9.52;3.13;;;18.40;99.90;;;;;;5052280;28;20296;-82
2023/05/27 07:55:19;;;;;;;9.40;3.30;;;18.30;99.90;;;;;;5048340;28;20202;-83
2023/05/27 07:57:48;;;;;;;10.15;3.60;;;18.30;99.90;;;;;;5033835;28;20311;-83
2023/05/27 08:00:15;;;;;;;10.80;3.80;;;18.50;99.90;;;;;;5032764;28;20253;-83
2023/05/27 08:02:43;;;;;;;14.73;4.38;;;18.60;99.90;;;;;;5033036;28;20278;-81
2023/05/27 08:05:10;;;;;;;10.00;3.50;;;18.40;99.90;;;;;;5032757;28;20203;-84
2023/05/27 08:07:37;;;;;;;11.63;4.07;;;18.00;99.90;;;;;;5033808;28;20202;-80
2023/05/27 08:10:05;;;;;;;12.75;3.95;;;17.70;99.90;;;;;;5033155;28;20706;-81
2023/05/27 08:12:32;;;;;;;6.82;2.80;;;17.50;99.90;;;;;;5034083;28;20206;-81
2023/05/27 08:15:00;;;;;;;11.88;4.10;;;17.60;99.90;;;;;;5033561;28;20203;-82
2023/05/27 08:17:27;;;;;;;11.63;4.20;;;17.80;99.90;;;;;;5033331;28;20218;-81
2023/05/27 08:19:54;;;;;;;11.30;3.90;;;17.60;99.90;;;;;;5033245;28;20285;-80
2023/05/27 08:22:21;;;;;;;13.30;4.32;;;17.90;99.90;;;;;;5033832;28;20206;-83
2023/05/27 08:24:49;;;;;;;9.98;4.45;;;18.50;99.90;;;;;;5034066;28;20290;-83
2023/05/27 08:27:17;;;;;;;13.88;4.45;;;18.80;99.90;;;;;;5040455;28;20205;-83
2023/05/27 08:29:44;;;;;;;9.23;4.38;;;18.80;99.90;;;;;;5052978;28;20286;-86
2023/05/27 08:32:12;;;;;;;13.40;4.32;;;18.80;99.90;;;;;;5053776;28;20298;-85
2023/05/27 08:34:41;;;;;;;8.85;3.50;;;18.60;99.90;;;;;;5033875;28;20638;-87
2023/05/27 08:37:08;;;;;;;12.45;3.92;;;18.70;99.90;;;;;;5033773;28;20218;-80
2023/05/27 08:39:36;;;;;;;12.02;4.45;;;18.70;99.90;;;;;;5046047;28;20229;-83
2023/05/27 08:42:04;;;;;;;12.43;4.22;;;18.90;99.90;;;;;;5053687;28;20584;-86
2023/05/27 08:44:31;;;;;;;12.90;4.38;;;19.00;99.90;;;;;;5053153;28;20285;-84
2023/05/27 08:46:58;;;;;;;13.15;4.38;;;19.00;99.90;;;;;;5043905;28;20194;-83
2023/05/27 08:49:27;;;;;;;7.30;3.47;;;18.90;99.90;;;;;;5034244;28;20197;-82
2023/05/27 08:51:57;;;;;;;10.43;4.25;;;19.00;99.90;;;;;;5033653;28;20206;-83
2023/05/27 08:54:25;;;;;;;14.50;4.22;;;19.10;99.90;;;;;;5034330;28;20297;-82
2023/05/27 08:56:56;;;;;;;12.25;4.32;;;19.00;99.90;;;;;;5033202;28;20493;-85
2023/05/27 08:59:23;;;;;;;14.55;5.18;;;18.70;99.90;;;;;;5033256;28;20191;-83
2023/05/27 09:01:50;;;;;;;16.65;4.72;;;18.70;99.90;;;;;;5033745;28;20194;-82
2023/05/27 09:04:17;;;;;;;13.13;5.03;;;18.70;99.90;;;;;;5033372;28;20610;-86
2023/05/27 09:06:46;;;;;;;11.05;4.28;;;18.50;99.90;;;;;;5033084;28;20293;-80
2023/05/27 09:09:13;;;;;;;13.35;4.00;;;18.60;99.90;;;;;;5033658;28;20194;-89
2023/05/27 09:11:40;;;;;;;14.00;4.25;;;18.70;99.90;;;;;;5033533;28;20195;-84
2023/05/27 09:14:07;;;;;;;15.73;4.32;;;18.70;99.90;;;;;;5033968;28;20281;-83
2023/05/27 09:16:34;;;;;;;13.27;4.82;;;18.60;99.90;;;;;;5034100;28;20242;-84
2023/05/27 09:19:01;;;;;;;13.10;4.55;;;19.10;99.90;;;;;;5033626;28;20230;-83
2023/05/27 09:21:28;;;;;;;13.13;5.45;;;19.50;99.90;;;;;;5034911;28;20708;-84
2023/05/27 09:23:58;;;;;;;14.77;4.97;;;19.70;99.90;;;;;;5038166;28;20288;-83
2023/05/27 09:26:25;;;;;;;12.27;4.20;;;19.50;99.90;;;;;;5037362;28;20206;-84
2023/05/27 09:28:52;;;;;;;11.40;4.05;;;19.80;99.90;;;;;;5037403;28;20297;-81
2023/05/27 09:31:23;;;;;;;14.25;5.68;;;19.60;99.90;;;;;;5037392;28;20245;-84
2023/05/27 09:33:50;;;;;;;13.23;5.03;;;19.40;99.90;;;;;;5037353;28;20614;-85
2023/05/27 09:36:22;;;;;;;12.50;5.05;;;19.40;99.90;;;;;;5020246;28;20198;-82
2023/05/27 09:38:49;;;;;;;15.10;4.90;;;19.50;99.90;;;;;;5039535;28;20211;-84
2023/05/27 09:41:25;;;;;;;10.82;4.35;;;19.70;99.90;;;;;;5038912;28;20198;-82
2023/05/27 09:43:55;;;;;;;10.63;4.45;;;19.80;99.90;;;;;;5037590;28;20256;-82
2023/05/27 09:46:23;;;;;;;13.60;4.82;;;20.00;99.90;;;;;;5054328;28;20217;-85
2023/05/27 09:48:50;;;;;;;10.30;5.18;;;19.90;99.90;;;;;;5056566;28;20208;-84
2023/05/27 09:51:17;;;;;;;10.57;4.85;;;19.90;99.90;;;;;;5059622;28;20205;-83
2023/05/27 09:53:47;;;;;;;13.73;4.72;;;20.30;99.90;;;;;;5056712;28;20208;-83
2023/05/27 09:56:14;;;;;;;11.52;4.35;;;20.50;99.90;;;;;;5057757;28;20196;-86
2023/05/27 09:58:43;;;;;;;12.75;4.53;;;20.70;99.90;;;;;;5056860;28;20232;-86
2023/05/27 10:01:11;;;;;;;10.82;4.55;;;20.80;99.90;;;;;;5057606;28;20230;-87
2023/05/27 10:03:41;;;;;;;12.80;4.28;;;20.60;99.90;;;;;;5037415;28;20219;-84
2023/05/27 10:06:12;;;;;;;11.65;4.47;;;20.40;99.90;;;;;;5036622;28;20245;-82
2023/05/27 10:08:39;;;;;;;9.32;4.22;;;20.60;99.90;;;;;;5035760;28;20225;-86
2023/05/27 10:11:06;;;;;;;12.10;4.75;;;20.70;99.90;;;;;;5052443;28;20652;-84
2023/05/27 10:13:34;;;;;;;12.32;4.65;;;20.60;99.90;;;;;;5042307;28;20234;-84
2023/05/27 10:16:03;;;;;;;12.80;5.00;;;20.50;99.90;;;;;;5036261;28;20313;-85
2023/05/27 10:18:33;;;;;;;15.48;5.22;;;20.20;99.90;;;;;;5036394;28;20225;-84
2023/05/27 10:21:04;;;;;;;13.23;5.07;;;20.40;99.90;;;;;;5036318;28;20269;-85
2023/05/27 10:23:31;;;;;;;12.85;5.50;;;20.40;99.90;;;;;;5035496;28;20205;-85
2023/05/27 10:26:03;;;;;;;14.63;5.35;;;20.20;99.90;;;;;;5045507;28;20206;-81
2023/05/27 10:28:32;;;;;;;13.38;4.72;;;20.10;99.90;;;;;;5055682;28;20198;-84
2023/05/27 10:31:08;;;;;;;11.77;4.63;;;19.80;99.90;;;;;;5046875;28;20203;-82
2023/05/27 10:33:37;;;;;;;11.23;4.50;;;20.00;99.90;;;;;;5034596;28;20248;-86
2023/05/27 10:36:07;;;;;;;8.45;4.28;;;20.20;99.90;;;;;;5034753;28;20218;-80
2023/05/27 10:38:34;;;;;;;13.88;5.15;;;20.40;99.90;;;;;;5035686;28;20573;-82
2023/05/27 10:41:02;;;;;;;12.88;5.05;;;20.60;99.90;;;;;;5035188;28;20207;-81
2023/05/27 10:43:30;;;;;;;13.15;5.10;;;20.70;99.90;;;;;;5034777;28;20293;-80
2023/05/27 10:46:05;;;;;;;13.68;5.03;;;20.70;99.90;;;;;;5035588;28;20665;-83
2023/05/27 10:48:34;;;;;;;11.00;4.50;;;21.00;99.90;;;;;;5035105;28;20211;-83
2023/05/27 10:51:01;;;;;;;10.48;4.68;;;21.20;99.90;;;;;;5034458;28;20260;-84
2023/05/27 10:53:29;;;;;;;14.75;5.20;;;21.50;99.90;;;;;;5035081;28;20249;-80
2023/05/27 10:55:59;;;;;;;13.25;4.78;;;21.60;99.90;;;;;;5034613;28;20281;-81
2023/05/27 10:58:26;;;;;;;15.07;4.60;;;21.50;99.90;;;;;;5034247;28;20261;-83
2023/05/27 11:00:55;;;;;;;12.30;5.00;;;21.40;99.90;;;;;;5034429;28;20202;-80
2023/05/27 11:03:23;;;;;;;13.77;4.75;;;21.30;99.90;;;;;;5034642;28;20305;-82
2023/05/27 11:06:03;;;;;;;15.80;4.97;;;21.20;99.90;;;;;;5032782;28;20210;-80
2023/05/27 11:08:30;;;;;;;14.38;4.80;;;21.10;99.90;;;;;;5034728;28;20481;-82
2023/05/27 11:11:02;;;;;;;9.77;4.97;;;20.90;99.90;;;;;;5034165;28;20256;-80
2023/05/27 11:13:33;;;;;;;12.50;4.70;;;20.80;99.90;;;;;;5033647;28;20609;-84
2023/05/27 11:16:00;;;;;;;16.92;5.53;;;20.90;99.90;;;;;;5016188;28;20240;-82
2023/05/27 11:18:38;;;;;;;11.57;4.72;;;20.70;99.90;;;;;;5033865;28;20223;-81
2023/05/27 11:21:07;;;;;;;14.02;4.65;;;20.80;99.90;;;;;;5034741;28;20203;-86
2023/05/27 11:23:40;;;;;;;11.23;4.43;;;21.00;99.90;;;;;;5034632;28;20214;-82
2023/05/27 11:26:13;;;;;;;11.35;4.40;;;20.90;99.90;;;;;;5033847;28;20527;-81
2023/05/27 11:28:46;;;;;;;10.48;4.25;;;20.90;99.90;;;;;;5034349;28;20183;-82
2023/05/27 11:31:13;;;;;;;13.20;5.00;;;21.00;99.90;;;;;;5033570;28;20199;-80
2023/05/27 11:33:42;;;;;;;10.18;3.72;;;21.00;99.90;;;;;;5052112;28;20209;-82
2023/05/27 11:36:13;;;;;;;11.60;4.57;;;21.10;99.90;;;;;;5050065;28;20213;-81
2023/05/27 11:39:01;;;;;;;12.57;4.53;;;21.60;99.90;;;;;;5048525;28;20653;-80
2023/05/27 11:41:29;;;;;;;11.63;4.35;;;21.80;99.90;;;;;;5028191;28;20323;-83
2023/05/27 11:43:57;;;;;;;12.18;5.05;;;22.00;99.90;;;;;;5033351;28;20205;-83
2023/05/27 11:46:24;;;;;;;15.77;5.20;;;22.30;99.90;;;;;;5033903;28;20217;-81
2023/05/27 11:48:52;;;;;;;13.63;5.10;;;22.40;99.90;;;;;;5033332;28;20198;-81
2023/05/27 11:51:27;;;;;;;12.20;5.28;;;22.60;99.90;;;;;;5033598;28;20199;-79
2023/05/27 11:53:55;;;;;;;11.77;4.57;;;22.50;99.90;;;;;;5032453;28;20198;-80
2023/05/27 11:56:22;;;;;;;15.48;4.97;;;22.60;99.90;;;;;;5032936;28;20594;-80
2023/05/27 11:58:49;;;;;;;15.40;4.80;;;22.30;99.90;;;;;;5033152;28;20226;-80
2023/05/27 12:01:16;;;;;;;12.23;4.80;;;22.40;99.90;;;;;;5044116;28;20254;-81
2023/05/27 12:03:43;;;;;;;13.57;5.28;;;22.30;99.90;;;;;;5048796;28;20202;-81
2023/05/27 12:06:10;;;;;;;9.55;4.95;;;22.00;99.90;;;;;;5033407;28;20203;-83
2023/05/27 12:08:39;;;;;;;12.20;5.03;;;22.00;99.90;;;;;;5032726;28;20207;-80
2023/05/27 12:11:06;;;;;;;17.73;5.38;;;22.00;99.90;;;;;;5036210;28;20213;-86
2023/05/27 12:13:33;;;;;;;11.35;4.32;;;21.70;99.90;;;;;;5052790;28;20201;-80
2023/05/27 12:16:02;;;;;;;14.95;4.68;;;21.70;99.90;;;;;;5052259;28;20265;-80
2023/05/27 12:18:29;;;;;;;9.90;4.63;;;21.80;99.90;;;;;;5052281;28;20296;-79
2023/05/27 12:20:56;;;;;;;11.75;4.95;;;22.00;99.90;;;;;;5032900;28;20506;-79
2023/05/27 12:23:23;;;;;;;14.25;5.38;;;21.90;99.90;;;;;;5032213;28;20489;-81
2023/05/27 12:25:51;;;;;;;12.45;4.68;;;22.10;99.90;;;;;;5032686;28;20191;-79
2023/05/27 12:28:18;;;;;;;10.60;4.25;;;22.20;99.90;;;;;;5033099;28;20235;-81
2023/05/27 12:30:46;;;;;;;11.88;4.57;;;22.30;99.90;;;;;;5032161;28;20887;-81
2023/05/27 12:33:13;;;;;;;9.55;4.15;;;22.40;99.90;;;;;;5032636;28;20199;-83
2023/05/27 12:35:40;;;;;;;11.50;4.65;;;22.60;99.90;;;;;;5031526;28;20233;-80
2023/05/27 12:38:07;;;;;;;13.48;5.20;;;22.70;99.90;;;;;;5032465;28;20232;-80
2023/05/27 12:40:34;;;;;;;10.95;4.28;;;22.80;99.90;;;;;;5037936;28;20520;-82
2023/05/27 12:43:03;;;;;;;9.07;4.43;;;22.80;99.90;;;;;;5058691;28;20341;-80
2023/05/27 12:45:31;;;;;;;11.65;4.20;;;22.70;99.90;;;;;;5057655;28;20503;-82